createdAt,value
2023-05-19T00:00:03.598Z,64.69
2023-05-19T00:02:33.890Z,60.69
2023-05-19T00:05:02.163Z,63.45
2023-05-19T00:07:32.515Z,63.32
2023-05-19T00:10:00.846Z,64.54
2023-05-19T00:12:28.412Z,61.17
2023-05-19T00:14:56.336Z,62.19
2023-05-19T00:17:24.199Z,62.73
2023-05-19T00:19:52.458Z,63.95
2023-05-19T00:22:19.858Z,63.31
2023-05-19T00:24:48.992Z,64.56
2023-05-19T00:27:16.499Z,65.45
2023-05-19T00:29:44.458Z,61.71
2023-05-19T00:32:12.067Z,61.56
2023-05-19T00:34:39.640Z,61.11
2023-05-19T00:37:07.069Z,62.50
2023-05-19T00:39:34.517Z,62.26
2023-05-19T00:42:03.672Z,63.24
2023-05-19T00:44:31.082Z,63.67
2023-05-19T00:46:58.781Z,63.53
2023-05-19T00:49:26.476Z,63.24
2023-05-19T00:51:54.078Z,63.52
2023-05-19T00:54:21.897Z,64.01
2023-05-19T00:56:49.772Z,63.97
2023-05-19T00:59:18.691Z,63.97
2023-05-19T01:01:48.985Z,64.78
2023-05-19T01:04:16.853Z,65.03
2023-05-19T01:06:44.627Z,65.31
2023-05-19T01:09:12.290Z,66.97
2023-05-19T01:11:39.756Z,66.32
2023-05-19T01:14:07.426Z,65.82
2023-05-19T01:16:41.716Z,66.46
2023-05-19T01:19:22.017Z,66.79
2023-05-19T01:22:22.803Z,65.44
2023-05-19T01:25:26.051Z,65.56
2023-05-19T01:28:16.997Z,65.26
2023-05-19T01:30:49.464Z,65.84
2023-05-19T01:33:18.978Z,65.34
2023-05-19T01:35:47.795Z,65.36
2023-05-19T01:38:17.945Z,66.61
2023-05-19T01:40:46.475Z,66.74
2023-05-19T01:43:17.489Z,68.90
2023-05-19T01:45:47.396Z,69.72
2023-05-19T01:48:15.852Z,70.40
2023-05-19T01:50:43.820Z,71.24
2023-05-19T01:53:11.667Z,70.47
2023-05-19T01:55:45.608Z,72.02
2023-05-19T01:58:31.817Z,69.76
2023-05-19T02:01:08.061Z,72.18
2023-05-19T02:03:48.448Z,73.33
2023-05-19T02:06:31.473Z,73.50
2023-05-19T02:09:04.425Z,72.86
2023-05-19T02:11:38.713Z,73.65
2023-05-19T02:14:14.574Z,75.81
2023-05-19T02:16:46.712Z,75.48
2023-05-19T02:19:25.582Z,75.60
2023-05-19T02:21:53.251Z,76.12
2023-05-19T02:24:22.753Z,75.81
2023-05-19T02:26:50.530Z,75.86
2023-05-19T02:29:18.049Z,76.59
2023-05-19T02:31:46.922Z,78.52
2023-05-19T02:34:14.759Z,78.28
2023-05-19T02:36:44.140Z,78.44
2023-05-19T02:39:12.213Z,78.64
2023-05-19T02:41:39.716Z,79.00
2023-05-19T02:44:07.486Z,79.13
2023-05-19T02:46:35.093Z,79.24
2023-05-19T02:49:03.857Z,79.39
2023-05-19T02:51:31.312Z,79.48
2023-05-19T02:53:58.729Z,79.96
2023-05-19T02:56:26.400Z,79.79
2023-05-19T02:58:53.837Z,80.17
2023-05-19T03:01:23.077Z,79.92
2023-05-19T03:03:51.059Z,80.59
2023-05-19T03:06:19.986Z,80.62
2023-05-19T03:08:47.448Z,82.16
2023-05-19T03:11:15.406Z,81.30
2023-05-19T03:13:42.874Z,80.64
2023-05-19T03:16:10.323Z,81.11
2023-05-19T03:18:37.898Z,79.49
2023-05-19T03:21:05.968Z,79.14
2023-05-19T03:23:34.726Z,80.49
2023-05-19T03:26:02.186Z,80.44
2023-05-19T03:28:29.650Z,80.28
2023-05-19T03:30:57.390Z,81.75
2023-05-19T03:33:25.085Z,82.34
2023-05-19T03:35:53.046Z,83.00
2023-05-19T03:38:20.593Z,82.00
2023-05-19T03:40:49.624Z,81.49
2023-05-19T03:43:17.173Z,81.19
2023-05-19T03:45:44.640Z,81.38
2023-05-19T03:48:12.534Z,81.68
2023-05-19T03:50:39.977Z,81.23
2023-05-19T03:53:07.624Z,83.64
2023-05-19T03:55:37.219Z,82.84
2023-05-19T03:58:06.344Z,81.49
2023-05-19T04:00:34.193Z,81.36
2023-05-19T04:03:01.947Z,81.49
2023-05-19T04:05:29.867Z,82.28
2023-05-19T04:07:57.364Z,82.02
2023-05-19T04:10:24.869Z,80.91
2023-05-19T04:12:52.698Z,81.05
2023-05-19T04:15:21.609Z,79.34
2023-05-19T04:17:49.189Z,79.62
2023-05-19T04:20:16.681Z,78.84
2023-05-19T04:22:44.168Z,80.31
2023-05-19T04:25:11.853Z,79.73
2023-05-19T04:27:39.704Z,79.83
2023-05-19T04:30:08.544Z,79.12
2023-05-19T04:32:37.685Z,77.28
2023-05-19T04:35:05.722Z,77.32
2023-05-19T04:37:33.156Z,78.15
2023-05-19T04:40:00.586Z,77.33
2023-05-19T04:42:30.730Z,76.17
2023-05-19T04:44:58.161Z,76.62
2023-05-19T04:47:28.012Z,76.22
2023-05-19T04:49:56.990Z,75.19
2023-05-19T04:52:24.409Z,75.45
2023-05-19T04:54:52.830Z,73.68
2023-05-19T04:57:20.283Z,71.37
2023-05-19T04:59:47.970Z,71.06
2023-05-19T05:02:16.108Z,70.46
2023-05-19T05:04:44.142Z,70.33
2023-05-19T05:07:12.917Z,68.92
2023-05-19T05:09:40.484Z,69.02
2023-05-19T05:12:09.147Z,69.98
2023-05-19T05:14:37.199Z,68.21
2023-05-19T05:17:05.113Z,66.47
2023-05-19T05:19:33.177Z,65.57
2023-05-19T05:22:01.285Z,65.00
2023-05-19T05:24:30.648Z,63.92
2023-05-19T05:26:58.918Z,64.50
2023-05-19T05:29:26.575Z,62.24
2023-05-19T05:31:54.024Z,61.26
2023-05-19T05:34:21.541Z,59.48
2023-05-19T05:36:49.046Z,58.41
2023-05-19T05:39:16.487Z,61.03
2023-05-19T05:41:45.348Z,60.94
2023-05-19T05:44:12.893Z,61.70
2023-05-19T05:46:40.835Z,61.77
2023-05-19T05:49:08.797Z,60.91
2023-05-19T05:51:36.874Z,61.91
2023-05-19T05:54:07.415Z,62.32
2023-05-19T05:56:36.999Z,65.09
2023-05-19T05:59:05.765Z,63.28
2023-05-19T06:01:35.488Z,63.14
2023-05-19T06:04:03.193Z,62.88
2023-05-19T06:06:31.215Z,61.67
2023-05-19T06:08:58.715Z,62.93
2023-05-19T06:11:26.579Z,59.98
2023-05-19T06:13:54.029Z,59.53
2023-05-19T06:16:22.831Z,57.62
2023-05-19T06:18:50.365Z,59.98
2023-05-19T06:21:17.874Z,61.77
2023-05-19T06:23:45.361Z,60.40
2023-05-19T06:26:12.805Z,59.45
2023-05-19T06:28:40.215Z,59.96
2023-05-19T06:31:07.760Z,58.12
2023-05-19T06:33:36.871Z,58.82
2023-05-19T06:36:04.829Z,59.40
2023-05-19T06:38:32.491Z,56.69
2023-05-19T06:40:59.919Z,59.11
2023-05-19T06:43:27.382Z,57.68
2023-05-19T06:45:54.802Z,58.95
2023-05-19T06:48:22.416Z,58.37
2023-05-19T06:50:51.795Z,56.73
2023-05-19T06:53:21.223Z,57.67
2023-05-19T06:55:58.632Z,57.65
2023-05-19T06:58:27.816Z,58.71
2023-05-19T07:00:55.443Z,57.66
2023-05-19T07:03:22.922Z,58.12
2023-05-19T07:05:52.063Z,56.72
2023-05-19T07:08:19.499Z,56.33
2023-05-19T07:10:46.908Z,55.89
2023-05-19T07:13:14.377Z,57.37
2023-05-19T07:15:41.849Z,58.25
2023-05-19T07:18:09.374Z,56.00
2023-05-19T07:20:36.838Z,56.96
2023-05-19T07:23:05.880Z,56.02
2023-05-19T07:25:33.569Z,55.92
2023-05-19T07:28:01.293Z,55.63
2023-05-19T07:30:29.283Z,56.57
2023-05-19T07:32:56.952Z,58.31
2023-05-19T07:35:24.832Z,58.92
2023-05-19T07:37:52.761Z,57.21
2023-05-19T07:40:21.615Z,56.65
2023-05-19T07:42:50.900Z,54.06
2023-05-19T07:45:18.831Z,55.05
2023-05-19T07:47:46.434Z,53.79
2023-05-19T07:50:13.989Z,53.91
2023-05-19T07:52:41.501Z,54.58
2023-05-19T07:55:09.024Z,51.75
2023-05-19T07:57:37.980Z,51.89
2023-05-19T08:00:07.696Z,51.47
2023-05-19T08:02:35.321Z,50.60
2023-05-19T08:05:02.893Z,50.70
2023-05-19T08:07:30.429Z,52.35
2023-05-19T08:09:57.905Z,51.21
2023-05-19T08:12:25.468Z,51.21
2023-05-19T08:14:54.854Z,50.67
2023-05-19T08:17:23.246Z,52.17
2023-05-19T08:19:50.717Z,51.31
2023-05-19T08:22:18.455Z,51.27
2023-05-19T08:24:45.897Z,50.65
2023-05-19T08:27:13.361Z,50.74
2023-05-19T08:29:40.817Z,50.32
2023-05-19T08:32:12.431Z,49.29
2023-05-19T08:34:41.207Z,48.82
2023-05-19T08:37:08.646Z,50.33
2023-05-19T08:39:36.695Z,51.05
2023-05-19T08:42:04.268Z,49.17
2023-05-19T08:44:31.912Z,49.63
2023-05-19T08:47:03.604Z,49.35
2023-05-19T08:49:34.567Z,49.32
2023-05-19T08:52:10.605Z,50.85
2023-05-19T08:54:44.894Z,48.48
2023-05-19T08:57:13.410Z,47.66
2023-05-19T08:59:42.301Z,47.91
2023-05-19T09:02:12.031Z,49.42
2023-05-19T09:04:41.518Z,48.45
2023-05-19T09:07:10.857Z,46.16
2023-05-19T09:09:40.765Z,47.97
2023-05-19T09:12:08.262Z,48.32
2023-05-19T09:14:35.920Z,48.36
2023-05-19T09:17:03.983Z,46.96
2023-05-19T09:19:31.788Z,47.04
2023-05-19T09:22:01.849Z,46.44
2023-05-19T09:24:29.612Z,46.18
2023-05-19T09:26:59.233Z,46.65
2023-05-19T09:29:27.591Z,46.84
2023-05-19T09:32:00.515Z,48.07
2023-05-19T09:34:28.398Z,47.29
2023-05-19T09:36:57.824Z,47.21
2023-05-19T09:39:28.690Z,46.96
2023-05-19T09:41:58.483Z,45.50
2023-05-19T09:44:29.234Z,44.55
2023-05-19T09:46:58.247Z,45.82
2023-05-19T09:49:29.406Z,46.05
2023-05-19T09:51:57.315Z,46.77
2023-05-19T09:54:25.607Z,46.15
2023-05-19T09:56:58.686Z,46.62
2023-05-19T09:59:27.054Z,45.74
2023-05-19T10:01:56.727Z,46.59
2023-05-19T10:04:25.443Z,47.30
2023-05-19T10:06:55.012Z,45.49
2023-05-19T10:09:24.930Z,46.50
2023-05-19T10:11:54.730Z,45.05
2023-05-19T10:14:24.539Z,45.35
2023-05-19T10:16:52.971Z,44.71
2023-05-19T10:19:23.185Z,46.12
2023-05-19T10:21:51.587Z,47.49
2023-05-19T10:24:19.615Z,46.22
2023-05-19T10:26:52.519Z,46.40
2023-05-19T10:29:26.162Z,46.49
2023-05-19T10:31:55.143Z,47.31
2023-05-19T10:34:40.549Z,48.49
2023-05-19T10:37:18.026Z,49.28
2023-05-19T10:39:46.332Z,47.79
2023-05-19T10:42:17.681Z,47.84
2023-05-19T10:45:03.479Z,47.83
2023-05-19T10:47:32.413Z,48.49
2023-05-19T10:50:01.720Z,48.87
2023-05-19T10:52:33.000Z,48.63
2023-05-19T10:55:02.105Z,49.27
2023-05-19T10:57:31.979Z,47.68
2023-05-19T11:00:11.652Z,48.76
2023-05-19T11:02:41.733Z,48.15
2023-05-19T11:05:10.488Z,48.96
2023-05-19T11:07:38.064Z,47.96
2023-05-19T11:10:07.992Z,47.85
2023-05-19T11:12:43.677Z,47.88
2023-05-19T11:15:13.651Z,47.36
2023-05-19T11:17:42.399Z,48.06
2023-05-19T11:20:20.795Z,48.08
2023-05-19T11:23:02.665Z,48.25
2023-05-19T11:25:42.704Z,47.19
2023-05-19T11:28:12.558Z,48.19
2023-05-19T11:30:43.255Z,48.51
2023-05-19T11:33:11.701Z,48.56
2023-05-19T11:35:40.049Z,47.36
2023-05-19T11:38:08.080Z,48.42
2023-05-19T11:40:35.880Z,47.05
2023-05-19T11:43:03.364Z,47.16
2023-05-19T11:45:33.309Z,48.13
2023-05-19T11:48:03.837Z,46.93
2023-05-19T11:50:32.342Z,46.30
2023-05-19T11:53:01.775Z,46.43
2023-05-19T11:55:30.126Z,47.17
2023-05-19T12:00:31.167Z,47.42
2023-05-19T12:02:58.902Z,49.61
2023-05-19T12:05:29.230Z,47.54
2023-05-19T12:07:56.802Z,46.37
2023-05-19T12:10:25.357Z,46.97
2023-05-19T12:12:53.301Z,47.74
2023-05-19T12:15:21.851Z,49.35
2023-05-19T12:17:51.476Z,47.25
2023-05-19T12:20:20.021Z,48.35
2023-05-19T12:22:49.150Z,49.58
2023-05-19T12:25:17.129Z,50.90
2023-05-19T12:27:45.886Z,48.77
2023-05-19T12:30:14.476Z,49.84
2023-05-19T12:32:42.224Z,49.45
2023-05-19T12:35:10.694Z,49.94
2023-05-19T12:37:42.299Z,48.59
2023-05-19T12:40:17.501Z,49.74
2023-05-19T12:42:45.749Z,49.42
2023-05-19T12:45:13.220Z,49.15
2023-05-19T12:47:40.711Z,50.15
2023-05-19T12:50:10.308Z,49.67
2023-05-19T12:52:43.558Z,50.58
2023-05-19T12:55:13.988Z,50.81
2023-05-19T12:57:42.946Z,52.55
2023-05-19T13:00:17.438Z,52.99
2023-05-19T13:03:00.001Z,52.03
2023-05-19T13:05:29.135Z,51.32
2023-05-19T13:07:58.485Z,49.18
2023-05-19T13:10:28.119Z,48.65
2023-05-19T13:12:56.964Z,51.21
2023-05-19T13:15:26.175Z,52.26
2023-05-19T13:17:54.748Z,50.77
2023-05-19T13:20:22.738Z,50.56
2023-05-19T13:22:50.490Z,50.97
2023-05-19T13:25:18.267Z,51.06
2023-05-19T13:27:47.093Z,50.75
2023-05-19T13:30:15.771Z,51.32
2023-05-19T13:32:43.485Z,50.20
2023-05-19T13:35:11.776Z,49.25
2023-05-19T13:37:40.017Z,49.54
2023-05-19T13:40:08.763Z,50.88
2023-05-19T13:42:36.764Z,50.46
2023-05-19T13:45:06.424Z,52.80
2023-05-19T13:47:33.893Z,51.94
2023-05-19T13:50:01.312Z,52.44
2023-05-19T13:52:30.489Z,52.58
2023-05-19T13:54:58.161Z,52.56
2023-05-19T13:57:26.331Z,51.18
2023-05-19T14:00:02.504Z,51.62
2023-05-19T14:02:32.891Z,52.00
2023-05-19T14:05:00.469Z,52.84
2023-05-19T14:07:28.233Z,52.34
2023-05-19T14:09:56.269Z,52.46
2023-05-19T14:12:33.934Z,52.23
2023-05-19T14:15:09.072Z,51.99
2023-05-19T14:17:38.559Z,53.09
2023-05-19T14:20:07.399Z,53.70
2023-05-19T14:22:34.886Z,54.74
2023-05-19T14:25:03.010Z,54.80
2023-05-19T14:27:30.419Z,55.80
2023-05-19T14:29:58.097Z,55.39
2023-05-19T14:32:26.809Z,54.52
2023-05-19T14:34:57.436Z,53.96
2023-05-19T14:37:26.544Z,53.63
2023-05-19T14:39:54.040Z,54.57
2023-05-19T14:42:21.466Z,53.67
2023-05-19T14:44:48.945Z,55.84
2023-05-19T14:47:16.554Z,55.43
2023-05-19T14:49:44.033Z,55.59
2023-05-19T14:52:12.797Z,55.28
2023-05-19T14:54:40.185Z,54.42
2023-05-19T14:57:08.116Z,55.09
2023-05-19T14:59:37.920Z,55.65
2023-05-19T15:02:05.674Z,55.81
2023-05-19T15:04:33.155Z,55.31
2023-05-19T15:09:32.566Z,56.11
2023-05-19T15:12:01.123Z,55.68
2023-05-19T15:14:30.615Z,55.03
2023-05-19T15:16:58.762Z,55.39
2023-05-19T15:19:26.639Z,56.70
2023-05-19T15:21:54.646Z,55.65
2023-05-19T15:24:22.592Z,54.90
2023-05-19T15:26:51.930Z,55.12
2023-05-19T15:29:19.449Z,56.21
2023-05-19T15:31:47.167Z,56.03
2023-05-19T15:34:14.751Z,57.09
2023-05-19T15:36:42.243Z,56.20
2023-05-19T15:39:09.879Z,57.15
2023-05-19T15:41:37.396Z,56.92
2023-05-19T15:44:06.752Z,57.00
2023-05-19T15:46:34.751Z,59.07
2023-05-19T15:49:02.261Z,58.46
2023-05-19T15:51:29.880Z,58.59
2023-05-19T15:53:57.396Z,57.98
2023-05-19T15:56:24.843Z,58.56
2023-05-19T15:58:52.385Z,59.65
2023-05-19T16:01:21.820Z,59.76
2023-05-19T16:03:49.481Z,58.86
2023-05-19T16:06:17.704Z,59.13
2023-05-19T16:08:45.152Z,59.36
2023-05-19T16:11:12.964Z,60.26
2023-05-19T16:13:40.385Z,59.84
2023-05-19T16:16:08.367Z,59.48
2023-05-19T16:18:37.127Z,59.53
2023-05-19T16:21:04.921Z,60.14
2023-05-19T16:23:32.377Z,60.76
2023-05-19T16:25:59.863Z,61.21
2023-05-19T16:28:27.923Z,61.32
2023-05-19T16:30:58.338Z,61.77
2023-05-19T16:33:25.941Z,61.75
2023-05-19T16:35:54.856Z,61.42
2023-05-19T16:38:22.520Z,61.23
2023-05-19T16:40:50.028Z,60.86
2023-05-19T16:43:17.463Z,60.70
2023-05-19T16:45:44.964Z,61.46
2023-05-19T16:48:12.616Z,61.20
2023-05-19T16:50:40.690Z,62.40
2023-05-19T16:53:09.482Z,61.86
2023-05-19T16:55:37.022Z,62.24
2023-05-19T16:58:06.250Z,62.06
2023-05-19T17:00:33.952Z,60.98
2023-05-19T17:03:01.637Z,60.96
2023-05-19T17:05:29.262Z,62.03
2023-05-19T17:07:56.704Z,61.14
2023-05-19T17:10:25.459Z,60.52
2023-05-19T17:12:52.933Z,60.84
2023-05-19T17:15:20.362Z,61.37
2023-05-19T17:17:49.253Z,62.30
2023-05-19T17:20:16.730Z,62.46
2023-05-19T17:22:44.165Z,62.88
2023-05-19T17:25:11.748Z,63.08
2023-05-19T17:27:40.624Z,63.30
2023-05-19T17:30:09.695Z,63.77
2023-05-19T17:32:39.255Z,63.96
2023-05-19T17:35:08.196Z,63.82
2023-05-19T17:37:36.311Z,63.23
2023-05-19T17:40:04.355Z,62.78
2023-05-19T17:42:31.894Z,63.19
2023-05-19T17:45:00.931Z,62.09
2023-05-19T17:47:28.499Z,61.45
2023-05-19T17:49:55.987Z,63.08
2023-05-19T17:52:25.566Z,63.92
2023-05-19T17:54:53.696Z,64.32
2023-05-19T17:57:25.893Z,64.05
2023-05-19T17:59:53.793Z,64.20
2023-05-19T18:02:23.181Z,64.49
2023-05-19T18:04:53.026Z,63.71
2023-05-19T18:07:21.991Z,64.40
2023-05-19T18:09:52.206Z,64.50
2023-05-19T18:12:19.703Z,64.21
2023-05-19T18:14:47.226Z,64.96
2023-05-19T18:17:14.641Z,65.34
2023-05-19T18:19:43.435Z,64.69
2023-05-19T18:22:12.865Z,65.38
2023-05-19T18:24:40.678Z,65.44
2023-05-19T18:27:08.123Z,65.57
2023-05-19T18:29:35.617Z,66.55
2023-05-19T18:32:03.195Z,66.64
2023-05-19T18:34:30.950Z,66.63
2023-05-19T18:36:59.742Z,66.94
2023-05-19T18:39:29.358Z,66.79
2023-05-19T18:41:56.896Z,67.51
2023-05-19T18:44:24.315Z,68.50
2023-05-19T18:46:51.759Z,67.74
2023-05-19T18:49:19.840Z,68.02
2023-05-19T18:51:48.381Z,67.97
2023-05-19T18:54:17.258Z,67.35
2023-05-19T18:56:44.712Z,67.89
2023-05-19T18:59:12.252Z,68.74
2023-05-19T19:01:39.822Z,68.67
2023-05-19T19:04:07.478Z,68.64
2023-05-19T19:06:34.941Z,68.17
2023-05-19T19:09:02.597Z,68.94
2023-05-19T19:11:31.426Z,69.27
2023-05-19T19:13:58.949Z,68.88
2023-05-19T19:16:29.178Z,68.70
2023-05-19T19:18:56.799Z,68.73
2023-05-19T19:21:24.280Z,69.21
2023-05-19T19:23:53.664Z,68.72
2023-05-19T19:26:21.734Z,69.62
2023-05-19T19:28:50.811Z,69.70
2023-05-19T19:31:18.302Z,70.63
2023-05-19T19:33:45.759Z,70.64
2023-05-19T19:36:13.360Z,70.36
2023-05-19T19:38:40.866Z,69.95
2023-05-19T19:41:08.371Z,69.62
2023-05-19T19:43:35.823Z,70.10
2023-05-19T19:46:08.170Z,69.88
2023-05-19T19:48:36.094Z,71.00
2023-05-19T19:51:03.625Z,70.93
2023-05-19T19:53:31.142Z,69.73
2023-05-19T19:55:59.676Z,70.56
2023-05-19T19:58:28.060Z,70.59
2023-05-19T20:00:59.181Z,70.93
2023-05-19T20:03:28.371Z,71.44
2023-05-19T20:05:57.412Z,70.47
2023-05-19T20:08:25.430Z,71.72
2023-05-19T20:10:53.073Z,71.45
2023-05-19T20:13:22.157Z,70.68
2023-05-19T20:15:49.735Z,70.29
2023-05-19T20:18:17.241Z,71.21
2023-05-19T20:20:46.046Z,70.60
2023-05-19T20:23:16.145Z,71.14
2023-05-19T20:25:57.873Z,71.16
2023-05-19T20:28:30.245Z,71.61
2023-05-19T20:30:57.672Z,72.64
2023-05-19T20:33:25.127Z,72.33
2023-05-19T20:35:54.185Z,72.75
2023-05-19T20:38:21.614Z,71.50
2023-05-19T20:40:49.141Z,71.66
2023-05-19T20:43:16.646Z,71.04
2023-05-19T20:45:44.292Z,72.19
2023-05-19T20:48:11.999Z,71.58
2023-05-19T20:50:40.199Z,72.34
2023-05-19T20:53:10.140Z,71.79
2023-05-19T20:55:38.895Z,71.68
2023-05-19T20:58:06.512Z,73.50
2023-05-19T21:00:34.220Z,73.14
2023-05-19T21:03:02.072Z,73.70
2023-05-19T21:05:30.035Z,72.96
2023-05-19T21:07:57.488Z,73.14
2023-05-19T21:10:28.164Z,72.67
2023-05-19T21:12:58.337Z,72.69
2023-05-19T21:15:26.888Z,73.20
2023-05-19T21:17:54.383Z,73.15
2023-05-19T21:20:22.006Z,72.92
2023-05-19T21:22:49.451Z,72.90
2023-05-19T21:25:17.188Z,74.26
2023-05-19T21:27:46.585Z,73.47
2023-05-19T21:30:14.325Z,74.89
2023-05-19T21:32:41.829Z,74.58
2023-05-19T21:35:09.791Z,73.55
2023-05-19T21:37:37.465Z,74.00
2023-05-19T21:40:05.236Z,74.74
2023-05-19T21:42:32.681Z,74.31
2023-05-19T21:45:01.475Z,73.80
2023-05-19T21:47:29.003Z,73.66
2023-05-19T21:49:56.433Z,73.43
2023-05-19T21:52:23.933Z,74.16
2023-05-19T21:54:51.944Z,74.77
2023-05-19T21:57:19.473Z,74.93
2023-05-19T21:59:47.120Z,74.94
2023-05-19T22:02:16.082Z,74.83
2023-05-19T22:04:44.752Z,74.87
2023-05-19T22:07:12.220Z,73.52
2023-05-19T22:09:39.656Z,74.39
2023-05-19T22:12:08.340Z,74.40
2023-05-19T22:14:36.447Z,75.01
2023-05-19T22:17:03.925Z,74.84
2023-05-19T22:19:32.693Z,73.85
2023-05-19T22:22:12.727Z,73.73
2023-05-19T22:24:41.510Z,73.67
2023-05-19T22:27:09.308Z,73.36
2023-05-19T22:29:38.331Z,74.04
2023-05-19T22:32:07.553Z,74.72
2023-05-19T22:34:36.452Z,75.00
2023-05-19T22:37:04.091Z,75.79
2023-05-19T22:39:31.529Z,74.79
2023-05-19T22:41:59.005Z,74.06
2023-05-19T22:44:26.489Z,74.53
2023-05-19T22:46:53.917Z,75.76
2023-05-19T22:49:22.816Z,75.32
2023-05-19T22:51:52.002Z,74.43
2023-05-19T22:54:19.520Z,74.45
2023-05-19T22:56:48.739Z,75.37
2023-05-19T22:59:17.713Z,75.39
2023-05-19T23:01:46.554Z,74.57
2023-05-19T23:04:14.410Z,75.39
2023-05-19T23:06:42.432Z,77.20
2023-05-19T23:09:11.333Z,77.37
2023-05-19T23:11:38.861Z,77.78
2023-05-19T23:14:06.627Z,77.62
2023-05-19T23:16:34.120Z,77.73
2023-05-19T23:19:01.696Z,78.00
2023-05-19T23:21:31.262Z,77.67
2023-05-19T23:23:59.400Z,79.18
2023-05-19T23:26:28.275Z,79.16
2023-05-19T23:28:55.791Z,80.28
2023-05-19T23:31:23.330Z,80.25
2023-05-19T23:33:50.857Z,79.92
2023-05-19T23:36:19.222Z,80.86
2023-05-19T23:38:46.732Z,80.74
2023-05-19T23:41:14.164Z,81.31
2023-05-19T23:43:42.914Z,81.51
2023-05-19T23:46:10.643Z,82.06
2023-05-19T23:48:38.199Z,81.27
2023-05-19T23:51:06.047Z,80.75
2023-05-19T23:53:33.499Z,82.71
2023-05-19T23:56:01.072Z,82.25
2023-05-19T23:58:28.563Z,83.17
